sensor_id;sensor_type;location;lat;lon;timestamp;P1;durP1;ratioP1;P2;durP2;ratioP2
65187;SDS011;51775;51.148;6.950;2022-12-05T00:00:32;8.57;;;4.65;;
65187;SDS011;51775;51.148;6.950;2022-12-05T00:02:57;7.45;;;4.72;;
65187;SDS011;51775;51.148;6.950;2022-12-05T00:05:23;6.70;;;4.20;;
65187;SDS011;51775;51.148;6.950;2022-12-05T00:07:48;6.38;;;4.38;;
65187;SDS011;51775;51.148;6.950;2022-12-05T00:10:13;7.07;;;4.50;;
65187;SDS011;51775;51.148;6.950;2022-12-05T00:12:39;7.13;;;4.60;;
65187;SDS011;51775;51.148;6.950;2022-12-05T00:15:04;7.45;;;4.50;;
65187;SDS011;51775;51.148;6.950;2022-12-05T00:17:30;7.45;;;4.57;;
65187;SDS011;51775;51.148;6.950;2022-12-05T00:19:56;7.07;;;4.47;;
65187;SDS011;51775;51.148;6.950;2022-12-05T00:22:22;7.13;;;4.47;;
65187;SDS011;51775;51.148;6.950;2022-12-05T00:24:47;6.90;;;4.30;;
65187;SDS011;51775;51.148;6.950;2022-12-05T00:27:12;7.55;;;4.40;;
65187;SDS011;51775;51.148;6.950;2022-12-05T00:29:37;7.75;;;4.70;;
65187;SDS011;51775;51.148;6.950;2022-12-05T00:32:03;8.10;;;4.65;;
65187;SDS011;51775;51.148;6.950;2022-12-05T00:34:28;7.38;;;4.68;;
65187;SDS011;51775;51.148;6.950;2022-12-05T00:36:53;6.78;;;4.45;;
65187;SDS011;51775;51.148;6.950;2022-12-05T00:39:19;7.93;;;4.65;;
65187;SDS011;51775;51.148;6.950;2022-12-05T00:41:44;7.00;;;4.45;;
65187;SDS011;51775;51.148;6.950;2022-12-05T00:44:10;7.85;;;4.55;;
65187;SDS011;51775;51.148;6.950;2022-12-05T00:46:36;8.57;;;4.90;;
65187;SDS011;51775;51.148;6.950;2022-12-05T00:49:02;7.05;;;4.55;;
65187;SDS011;51775;51.148;6.950;2022-12-05T00:51:33;5.80;;;4.05;;
65187;SDS011;51775;51.148;6.950;2022-12-05T00:54:01;7.03;;;4.57;;
65187;SDS011;51775;51.148;6.950;2022-12-05T00:56:29;6.43;;;4.70;;
65187;SDS011;51775;51.148;6.950;2022-12-05T00:58:56;7.93;;;4.55;;
65187;SDS011;51775;51.148;6.950;2022-12-05T01:01:23;8.23;;;4.93;;
65187;SDS011;51775;51.148;6.950;2022-12-05T01:03:51;7.38;;;4.57;;
65187;SDS011;51775;51.148;6.950;2022-12-05T01:06:18;6.80;;;4.25;;
65187;SDS011;51775;51.148;6.950;2022-12-05T01:08:44;8.95;;;4.70;;
65187;SDS011;51775;51.148;6.950;2022-12-05T01:11:11;7.10;;;4.75;;
65187;SDS011;51775;51.148;6.950;2022-12-05T01:13:39;7.47;;;4.90;;
65187;SDS011;51775;51.148;6.950;2022-12-05T01:16:05;7.53;;;4.68;;
65187;SDS011;51775;51.148;6.950;2022-12-05T01:18:39;7.78;;;4.85;;
65187;SDS011;51775;51.148;6.950;2022-12-05T01:21:05;7.22;;;4.75;;
65187;SDS011;51775;51.148;6.950;2022-12-05T01:23:30;7.40;;;4.57;;
65187;SDS011;51775;51.148;6.950;2022-12-05T01:25:55;7.75;;;4.57;;
65187;SDS011;51775;51.148;6.950;2022-12-05T01:28:21;7.95;;;4.88;;
65187;SDS011;51775;51.148;6.950;2022-12-05T01:30:47;9.07;;;4.60;;
65187;SDS011;51775;51.148;6.950;2022-12-05T01:33:14;8.30;;;4.80;;
65187;SDS011;51775;51.148;6.950;2022-12-05T01:35:40;7.43;;;4.50;;
65187;SDS011;51775;51.148;6.950;2022-12-05T01:38:06;7.07;;;4.50;;
65187;SDS011;51775;51.148;6.950;2022-12-05T01:40:32;7.55;;;4.68;;
65187;SDS011;51775;51.148;6.950;2022-12-05T01:42:58;6.28;;;4.32;;
65187;SDS011;51775;51.148;6.950;2022-12-05T01:45:31;7.57;;;5.00;;
65187;SDS011;51775;51.148;6.950;2022-12-05T01:48:02;7.47;;;4.88;;
65187;SDS011;51775;51.148;6.950;2022-12-05T01:50:32;7.93;;;4.93;;
65187;SDS011;51775;51.148;6.950;2022-12-05T01:52:58;7.00;;;4.72;;
65187;SDS011;51775;51.148;6.950;2022-12-05T01:55:24;8.95;;;5.03;;
65187;SDS011;51775;51.148;6.950;2022-12-05T01:57:50;6.72;;;4.55;;
65187;SDS011;51775;51.148;6.950;2022-12-05T02:00:16;8.18;;;4.90;;
65187;SDS011;51775;51.148;6.950;2022-12-05T02:02:45;8.15;;;4.70;;
65187;SDS011;51775;51.148;6.950;2022-12-05T02:05:19;6.80;;;4.53;;
65187;SDS011;51775;51.148;6.950;2022-12-05T02:07:47;8.40;;;4.90;;
65187;SDS011;51775;51.148;6.950;2022-12-05T02:10:12;7.63;;;4.90;;
65187;SDS011;51775;51.148;6.950;2022-12-05T02:12:38;8.57;;;4.85;;
65187;SDS011;51775;51.148;6.950;2022-12-05T02:23:19;6.43;;;4.47;;
65187;SDS011;51775;51.148;6.950;2022-12-05T02:26:11;7.47;;;4.90;;
65187;SDS011;51775;51.148;6.950;2022-12-05T02:37:31;7.90;;;4.82;;
65187;SDS011;51775;51.148;6.950;2022-12-05T02:42:54;7.68;;;4.80;;
65187;SDS011;51775;51.148;6.950;2022-12-05T02:45:24;7.35;;;4.78;;
65187;SDS011;51775;51.148;6.950;2022-12-05T02:47:53;8.43;;;4.95;;
65187;SDS011;51775;51.148;6.950;2022-12-05T02:50:22;7.13;;;4.70;;
65187;SDS011;51775;51.148;6.950;2022-12-05T02:52:52;7.25;;;4.60;;
65187;SDS011;51775;51.148;6.950;2022-12-05T02:55:20;7.72;;;4.80;;
65187;SDS011;51775;51.148;6.950;2022-12-05T02:57:49;8.00;;;5.18;;
65187;SDS011;51775;51.148;6.950;2022-12-05T03:00:18;7.10;;;4.75;;
65187;SDS011;51775;51.148;6.950;2022-12-05T03:02:44;8.18;;;5.05;;
65187;SDS011;51775;51.148;6.950;2022-12-05T03:05:24;8.38;;;4.80;;
65187;SDS011;51775;51.148;6.950;2022-12-05T03:07:56;8.63;;;5.15;;
65187;SDS011;51775;51.148;6.950;2022-12-05T03:10:24;7.93;;;4.97;;
65187;SDS011;51775;51.148;6.950;2022-12-05T03:12:55;8.10;;;5.07;;
65187;SDS011;51775;51.148;6.950;2022-12-05T03:15:24;8.02;;;5.30;;
65187;SDS011;51775;51.148;6.950;2022-12-05T03:17:57;7.07;;;4.68;;
65187;SDS011;51775;51.148;6.950;2022-12-05T03:20:28;7.72;;;4.90;;
65187;SDS011;51775;51.148;6.950;2022-12-05T03:23:11;7.03;;;4.75;;
65187;SDS011;51775;51.148;6.950;2022-12-05T03:28:35;8.60;;;5.25;;
65187;SDS011;51775;51.148;6.950;2022-12-05T03:31:38;8.93;;;5.35;;
65187;SDS011;51775;51.148;6.950;2022-12-05T03:34:10;7.53;;;4.70;;
65187;SDS011;51775;51.148;6.950;2022-12-05T03:36:41;7.70;;;4.88;;
65187;SDS011;51775;51.148;6.950;2022-12-05T03:41:52;7.57;;;4.50;;
65187;SDS011;51775;51.148;6.950;2022-12-05T03:44:22;7.72;;;4.90;;
65187;SDS011;51775;51.148;6.950;2022-12-05T03:47:39;8.40;;;5.03;;
65187;SDS011;51775;51.148;6.950;2022-12-05T03:50:01;7.97;;;5.07;;
65187;SDS011;51775;51.148;6.950;2022-12-05T03:52:35;7.82;;;4.82;;
65187;SDS011;51775;51.148;6.950;2022-12-05T03:55:07;8.60;;;5.10;;
65187;SDS011;51775;51.148;6.950;2022-12-05T03:57:39;8.43;;;4.97;;
65187;SDS011;51775;51.148;6.950;2022-12-05T04:00:15;8.65;;;5.72;;
65187;SDS011;51775;51.148;6.950;2022-12-05T04:05:30;6.78;;;4.68;;
65187;SDS011;51775;51.148;6.950;2022-12-05T04:08:02;7.90;;;4.90;;
65187;SDS011;51775;51.148;6.950;2022-12-05T04:10:32;7.53;;;4.97;;
65187;SDS011;51775;51.148;6.950;2022-12-05T04:13:01;8.48;;;5.00;;
65187;SDS011;51775;51.148;6.950;2022-12-05T04:15:28;7.70;;;4.65;;
65187;SDS011;51775;51.148;6.950;2022-12-05T04:17:56;7.60;;;5.00;;
65187;SDS011;51775;51.148;6.950;2022-12-05T04:20:28;8.10;;;4.85;;
65187;SDS011;51775;51.148;6.950;2022-12-05T04:23:05;7.82;;;4.93;;
65187;SDS011;51775;51.148;6.950;2022-12-05T04:25:35;7.82;;;5.00;;
65187;SDS011;51775;51.148;6.950;2022-12-05T04:33:46;7.95;;;5.10;;
65187;SDS011;51775;51.148;6.950;2022-12-05T04:36:21;8.27;;;5.17;;
65187;SDS011;51775;51.148;6.950;2022-12-05T04:39:22;7.97;;;4.80;;
65187;SDS011;51775;51.148;6.950;2022-12-05T04:41:58;8.40;;;5.57;;
65187;SDS011;51775;51.148;6.950;2022-12-05T04:44:31;7.88;;;5.15;;
65187;SDS011;51775;51.148;6.950;2022-12-05T04:47:00;7.90;;;5.20;;
65187;SDS011;51775;51.148;6.950;2022-12-05T04:49:28;8.40;;;5.00;;
65187;SDS011;51775;51.148;6.950;2022-12-05T04:51:58;8.30;;;5.18;;
65187;SDS011;51775;51.148;6.950;2022-12-05T04:54:28;8.55;;;4.97;;
65187;SDS011;51775;51.148;6.950;2022-12-05T04:56:59;8.10;;;5.10;;
65187;SDS011;51775;51.148;6.950;2022-12-05T04:59:31;7.40;;;5.20;;
65187;SDS011;51775;51.148;6.950;2022-12-05T05:01:57;8.00;;;5.25;;
65187;SDS011;51775;51.148;6.950;2022-12-05T05:04:31;7.40;;;4.90;;
65187;SDS011;51775;51.148;6.950;2022-12-05T05:06:59;7.55;;;5.00;;
65187;SDS011;51775;51.148;6.950;2022-12-05T05:09:29;7.85;;;5.10;;
65187;SDS011;51775;51.148;6.950;2022-12-05T05:11:55;7.95;;;4.85;;
65187;SDS011;51775;51.148;6.950;2022-12-05T05:14:20;7.32;;;4.88;;
65187;SDS011;51775;51.148;6.950;2022-12-05T05:16:45;8.30;;;5.35;;
65187;SDS011;51775;51.148;6.950;2022-12-05T05:19:11;7.85;;;5.00;;
65187;SDS011;51775;51.148;6.950;2022-12-05T05:21:40;7.30;;;4.93;;
65187;SDS011;51775;51.148;6.950;2022-12-05T05:24:06;8.18;;;5.40;;
65187;SDS011;51775;51.148;6.950;2022-12-05T05:26:34;7.70;;;4.78;;
65187;SDS011;51775;51.148;6.950;2022-12-05T05:29:00;7.65;;;4.78;;
65187;SDS011;51775;51.148;6.950;2022-12-05T05:31:26;7.68;;;5.00;;
65187;SDS011;51775;51.148;6.950;2022-12-05T05:33:52;8.40;;;5.10;;
65187;SDS011;51775;51.148;6.950;2022-12-05T05:36:19;7.57;;;4.82;;
65187;SDS011;51775;51.148;6.950;2022-12-05T05:38:47;7.50;;;5.10;;
65187;SDS011;51775;51.148;6.950;2022-12-05T05:41:16;7.57;;;4.72;;
65187;SDS011;51775;51.148;6.950;2022-12-05T05:44:02;8.05;;;5.10;;
65187;SDS011;51775;51.148;6.950;2022-12-05T05:46:29;7.45;;;4.82;;
65187;SDS011;51775;51.148;6.950;2022-12-05T05:48:55;7.55;;;4.85;;
65187;SDS011;51775;51.148;6.950;2022-12-05T05:51:22;7.55;;;5.22;;
65187;SDS011;51775;51.148;6.950;2022-12-05T05:53:48;7.57;;;4.88;;
65187;SDS011;51775;51.148;6.950;2022-12-05T05:56:14;6.95;;;4.90;;
65187;SDS011;51775;51.148;6.950;2022-12-05T05:58:41;8.48;;;5.32;;
65187;SDS011;51775;51.148;6.950;2022-12-05T06:01:07;7.82;;;4.80;;
65187;SDS011;51775;51.148;6.950;2022-12-05T06:03:41;8.45;;;4.90;;
65187;SDS011;51775;51.148;6.950;2022-12-05T06:06:07;8.20;;;4.88;;
65187;SDS011;51775;51.148;6.950;2022-12-05T06:08:35;7.32;;;4.90;;
65187;SDS011;51775;51.148;6.950;2022-12-05T06:11:05;7.15;;;4.80;;
65187;SDS011;51775;51.148;6.950;2022-12-05T06:13:34;7.75;;;4.93;;
65187;SDS011;51775;51.148;6.950;2022-12-05T06:16:00;7.10;;;4.60;;
65187;SDS011;51775;51.148;6.950;2022-12-05T06:18:26;7.63;;;5.10;;
65187;SDS011;51775;51.148;6.950;2022-12-05T06:20:54;6.95;;;4.70;;
65187;SDS011;51775;51.148;6.950;2022-12-05T06:23:20;7.78;;;5.22;;
65187;SDS011;51775;51.148;6.950;2022-12-05T06:25:49;7.97;;;5.22;;
65187;SDS011;51775;51.148;6.950;2022-12-05T06:28:16;7.53;;;4.72;;
65187;SDS011;51775;51.148;6.950;2022-12-05T06:30:43;8.10;;;4.97;;
65187;SDS011;51775;51.148;6.950;2022-12-05T06:33:09;8.25;;;4.88;;
65187;SDS011;51775;51.148;6.950;2022-12-05T06:35:36;7.63;;;4.57;;
65187;SDS011;51775;51.148;6.950;2022-12-05T06:38:07;6.82;;;4.68;;
65187;SDS011;51775;51.148;6.950;2022-12-05T06:40:32;7.03;;;4.63;;
65187;SDS011;51775;51.148;6.950;2022-12-05T06:43:04;7.63;;;4.63;;
65187;SDS011;51775;51.148;6.950;2022-12-05T06:45:29;8.32;;;4.97;;
65187;SDS011;51775;51.148;6.950;2022-12-05T06:47:54;6.55;;;4.50;;
65187;SDS011;51775;51.148;6.950;2022-12-05T06:50:20;8.23;;;4.40;;
65187;SDS011;51775;51.148;6.950;2022-12-05T06:52:45;7.03;;;4.57;;
65187;SDS011;51775;51.148;6.950;2022-12-05T06:55:10;7.53;;;4.57;;
65187;SDS011;51775;51.148;6.950;2022-12-05T06:57:36;6.50;;;4.40;;
65187;SDS011;51775;51.148;6.950;2022-12-05T07:00:07;7.32;;;4.28;;
65187;SDS011;51775;51.148;6.950;2022-12-05T07:02:33;6.40;;;4.22;;
65187;SDS011;51775;51.148;6.950;2022-12-05T07:04:59;7.25;;;4.15;;
65187;SDS011;51775;51.148;6.950;2022-12-05T07:07:24;5.80;;;3.83;;
65187;SDS011;51775;51.148;6.950;2022-12-05T07:09:50;6.63;;;3.63;;
65187;SDS011;51775;51.148;6.950;2022-12-05T07:12:16;5.93;;;3.63;;
65187;SDS011;51775;51.148;6.950;2022-12-05T07:14:43;7.85;;;3.95;;
65187;SDS011;51775;51.148;6.950;2022-12-05T07:17:08;5.63;;;3.75;;
65187;SDS011;51775;51.148;6.950;2022-12-05T07:19:34;5.63;;;3.85;;
65187;SDS011;51775;51.148;6.950;2022-12-05T07:21:59;4.90;;;3.50;;
65187;SDS011;51775;51.148;6.950;2022-12-05T07:24:24;5.57;;;3.53;;
65187;SDS011;51775;51.148;6.950;2022-12-05T07:26:50;5.82;;;3.42;;
65187;SDS011;51775;51.148;6.950;2022-12-05T07:29:15;5.80;;;3.67;;
65187;SDS011;51775;51.148;6.950;2022-12-05T07:31:40;8.73;;;3.65;;
65187;SDS011;51775;51.148;6.950;2022-12-05T07:34:06;6.35;;;4.20;;
65187;SDS011;51775;51.148;6.950;2022-12-05T07:36:31;7.65;;;4.25;;
65187;SDS011;51775;51.148;6.950;2022-12-05T07:38:56;8.38;;;4.60;;
65187;SDS011;51775;51.148;6.950;2022-12-05T07:41:26;7.93;;;4.38;;
65187;SDS011;51775;51.148;6.950;2022-12-05T07:43:55;7.45;;;4.22;;
65187;SDS011;51775;51.148;6.950;2022-12-05T07:46:21;7.55;;;4.30;;
65187;SDS011;51775;51.148;6.950;2022-12-05T07:48:48;6.18;;;3.85;;
65187;SDS011;51775;51.148;6.950;2022-12-05T07:51:14;7.88;;;4.35;;
65187;SDS011;51775;51.148;6.950;2022-12-05T07:53:39;5.88;;;3.85;;
65187;SDS011;51775;51.148;6.950;2022-12-05T07:56:06;9.07;;;4.07;;
65187;SDS011;51775;51.148;6.950;2022-12-05T07:58:33;7.13;;;4.00;;
65187;SDS011;51775;51.148;6.950;2022-12-05T08:01:12;7.85;;;4.15;;
65187;SDS011;51775;51.148;6.950;2022-12-05T08:03:39;5.55;;;3.65;;
65187;SDS011;51775;51.148;6.950;2022-12-05T08:06:06;6.00;;;3.70;;
65187;SDS011;51775;51.148;6.950;2022-12-05T08:08:36;20.58;;;5.38;;
65187;SDS011;51775;51.148;6.950;2022-12-05T08:11:09;18.40;;;5.65;;
65187;SDS011;51775;51.148;6.950;2022-12-05T08:13:39;18.10;;;5.00;;
65187;SDS011;51775;51.148;6.950;2022-12-05T08:16:06;23.45;;;5.90;;
65187;SDS011;51775;51.148;6.950;2022-12-05T08:18:34;17.60;;;5.20;;
65187;SDS011;51775;51.148;6.950;2022-12-05T08:21:00;17.42;;;5.40;;
65187;SDS011;51775;51.148;6.950;2022-12-05T08:23:29;12.90;;;4.57;;
65187;SDS011;51775;51.148;6.950;2022-12-05T08:25:55;10.73;;;4.45;;
65187;SDS011;51775;51.148;6.950;2022-12-05T08:28:24;10.50;;;4.22;;
65187;SDS011;51775;51.148;6.950;2022-12-05T08:30:50;12.82;;;4.65;;
65187;SDS011;51775;51.148;6.950;2022-12-05T08:33:15;10.05;;;4.57;;
65187;SDS011;51775;51.148;6.950;2022-12-05T08:35:40;10.00;;;4.53;;
65187;SDS011;51775;51.148;6.950;2022-12-05T08:38:14;8.27;;;3.55;;
65187;SDS011;51775;51.148;6.950;2022-12-05T08:40:39;10.00;;;3.90;;
65187;SDS011;51775;51.148;6.950;2022-12-05T08:43:04;8.55;;;3.63;;
65187;SDS011;51775;51.148;6.950;2022-12-05T08:45:29;7.70;;;3.65;;
65187;SDS011;51775;51.148;6.950;2022-12-05T08:47:55;8.00;;;3.42;;
65187;SDS011;51775;51.148;6.950;2022-12-05T08:50:20;10.52;;;3.63;;
65187;SDS011;51775;51.148;6.950;2022-12-05T08:52:45;8.52;;;3.67;;
65187;SDS011;51775;51.148;6.950;2022-12-05T08:55:10;8.10;;;3.65;;
65187;SDS011;51775;51.148;6.950;2022-12-05T08:57:36;7.65;;;3.38;;
65187;SDS011;51775;51.148;6.950;2022-12-05T09:18:35;7.80;;;3.63;;
65187;SDS011;51775;51.148;6.950;2022-12-05T10:00:12;8.50;;;4.22;;
65187;SDS011;51775;51.148;6.950;2022-12-05T10:05:45;7.55;;;3.90;;
65187;SDS011;51775;51.148;6.950;2022-12-05T10:16:11;5.88;;;3.22;;
65187;SDS011;51775;51.148;6.950;2022-12-05T10:21:13;4.97;;;3.08;;
65187;SDS011;51775;51.148;6.950;2022-12-05T10:23:50;5.35;;;3.10;;
65187;SDS011;51775;51.148;6.950;2022-12-05T10:26:17;5.03;;;2.97;;
65187;SDS011;51775;51.148;6.950;2022-12-05T10:31:31;4.88;;;2.80;;
65187;SDS011;51775;51.148;6.950;2022-12-05T10:34:02;4.53;;;2.88;;
65187;SDS011;51775;51.148;6.950;2022-12-05T10:36:34;6.03;;;2.85;;
65187;SDS011;51775;51.148;6.950;2022-12-05T10:38:59;4.28;;;2.90;;
65187;SDS011;51775;51.148;6.950;2022-12-05T10:41:25;7.63;;;2.80;;
65187;SDS011;51775;51.148;6.950;2022-12-05T10:43:51;5.10;;;2.90;;
65187;SDS011;51775;51.148;6.950;2022-12-05T10:46:16;4.85;;;2.75;;
65187;SDS011;51775;51.148;6.950;2022-12-05T10:48:41;3.88;;;2.42;;
65187;SDS011;51775;51.148;6.950;2022-12-05T10:51:12;4.50;;;2.55;;
65187;SDS011;51775;51.148;6.950;2022-12-05T10:53:47;3.85;;;2.53;;
65187;SDS011;51775;51.148;6.950;2022-12-05T10:59:02;5.45;;;2.70;;
65187;SDS011;51775;51.148;6.950;2022-12-05T11:01:27;4.15;;;2.70;;
65187;SDS011;51775;51.148;6.950;2022-12-05T11:03:57;3.40;;;2.30;;
65187;SDS011;51775;51.148;6.950;2022-12-05T11:06:25;3.70;;;2.50;;
65187;SDS011;51775;51.148;6.950;2022-12-05T11:08:53;3.72;;;2.60;;
65187;SDS011;51775;51.148;6.950;2022-12-05T11:11:21;4.38;;;2.58;;
65187;SDS011;51775;51.148;6.950;2022-12-05T11:13:56;4.30;;;2.70;;
65187;SDS011;51775;51.148;6.950;2022-12-05T11:16:25;3.35;;;2.45;;
65187;SDS011;51775;51.148;6.950;2022-12-05T11:18:55;7.05;;;2.70;;
65187;SDS011;51775;51.148;6.950;2022-12-05T11:21:20;4.30;;;2.70;;
65187;SDS011;51775;51.148;6.950;2022-12-05T11:23:46;4.53;;;2.88;;
65187;SDS011;51775;51.148;6.950;2022-12-05T11:28:52;5.18;;;2.92;;
65187;SDS011;51775;51.148;6.950;2022-12-05T11:31:22;5.68;;;3.20;;
65187;SDS011;51775;51.148;6.950;2022-12-05T11:34:01;4.32;;;2.95;;
65187;SDS011;51775;51.148;6.950;2022-12-05T11:36:45;4.60;;;3.10;;
65187;SDS011;51775;51.148;6.950;2022-12-05T11:39:14;6.75;;;3.00;;
65187;SDS011;51775;51.148;6.950;2022-12-05T11:55:15;4.47;;;2.88;;
65187;SDS011;51775;51.148;6.950;2022-12-05T12:00:50;3.85;;;2.78;;
65187;SDS011;51775;51.148;6.950;2022-12-05T12:30:21;4.65;;;2.80;;
65187;SDS011;51775;51.148;6.950;2022-12-05T12:32:57;3.90;;;2.70;;
65187;SDS011;51775;51.148;6.950;2022-12-05T12:36:04;3.92;;;2.45;;
65187;SDS011;51775;51.148;6.950;2022-12-05T12:38:37;4.53;;;2.83;;
65187;SDS011;51775;51.148;6.950;2022-12-05T12:41:34;4.10;;;2.80;;
65187;SDS011;51775;51.148;6.950;2022-12-05T12:47:14;3.85;;;2.80;;
65187;SDS011;51775;51.148;6.950;2022-12-05T12:50:01;4.18;;;2.63;;
65187;SDS011;51775;51.148;6.950;2022-12-05T13:01:14;2.88;;;2.20;;
65187;SDS011;51775;51.148;6.950;2022-12-05T13:06:31;5.05;;;2.22;;
65187;SDS011;51775;51.148;6.950;2022-12-05T13:09:08;3.92;;;2.30;;
65187;SDS011;51775;51.148;6.950;2022-12-05T13:11:38;3.13;;;2.03;;
65187;SDS011;51775;51.148;6.950;2022-12-05T13:14:10;3.40;;;2.15;;
65187;SDS011;51775;51.148;6.950;2022-12-05T13:16:45;3.47;;;2.03;;
65187;SDS011;51775;51.148;6.950;2022-12-05T13:19:20;3.17;;;2.22;;
65187;SDS011;51775;51.148;6.950;2022-12-05T13:21:50;3.28;;;2.05;;
65187;SDS011;51775;51.148;6.950;2022-12-05T13:24:17;3.65;;;1.90;;
65187;SDS011;51775;51.148;6.950;2022-12-05T13:26:47;3.35;;;1.90;;
65187;SDS011;51775;51.148;6.950;2022-12-05T13:29:18;2.60;;;1.80;;
65187;SDS011;51775;51.148;6.950;2022-12-05T13:31:49;2.80;;;1.88;;
65187;SDS011;51775;51.148;6.950;2022-12-05T13:36:52;3.28;;;2.10;;
65187;SDS011;51775;51.148;6.950;2022-12-05T13:39:20;3.20;;;1.90;;
65187;SDS011;51775;51.148;6.950;2022-12-05T13:41:48;3.35;;;1.90;;
65187;SDS011;51775;51.148;6.950;2022-12-05T13:44:16;3.47;;;2.38;;
65187;SDS011;51775;51.148;6.950;2022-12-05T13:46:56;3.90;;;2.20;;
65187;SDS011;51775;51.148;6.950;2022-12-05T13:49:28;3.50;;;2.30;;
65187;SDS011;51775;51.148;6.950;2022-12-05T13:52:17;3.15;;;2.00;;
65187;SDS011;51775;51.148;6.950;2022-12-05T13:54:56;3.10;;;2.00;;
65187;SDS011;51775;51.148;6.950;2022-12-05T14:13:37;3.13;;;2.10;;
65187;SDS011;51775;51.148;6.950;2022-12-05T14:15:45;3.60;;;2.35;;
65187;SDS011;51775;51.148;6.950;2022-12-05T14:18:19;3.55;;;2.30;;
65187;SDS011;51775;51.148;6.950;2022-12-05T14:23:49;4.03;;;2.60;;
65187;SDS011;51775;51.148;6.950;2022-12-05T14:26:30;3.20;;;2.28;;
65187;SDS011;51775;51.148;6.950;2022-12-05T14:29:02;4.28;;;2.40;;
65187;SDS011;51775;51.148;6.950;2022-12-05T14:34:23;3.88;;;2.38;;
65187;SDS011;51775;51.148;6.950;2022-12-05T14:36:55;4.25;;;2.60;;
65187;SDS011;51775;51.148;6.950;2022-12-05T14:39:30;3.95;;;2.30;;
65187;SDS011;51775;51.148;6.950;2022-12-05T14:41:57;3.40;;;2.30;;
65187;SDS011;51775;51.148;6.950;2022-12-05T14:44:24;4.10;;;2.70;;
65187;SDS011;51775;51.148;6.950;2022-12-05T14:46:51;3.78;;;2.50;;
65187;SDS011;51775;51.148;6.950;2022-12-05T14:49:32;3.75;;;2.40;;
65187;SDS011;51775;51.148;6.950;2022-12-05T14:52:28;4.50;;;2.58;;
65187;SDS011;51775;51.148;6.950;2022-12-05T14:55:05;3.55;;;2.38;;
65187;SDS011;51775;51.148;6.950;2022-12-05T14:57:42;3.17;;;2.22;;
65187;SDS011;51775;51.148;6.950;2022-12-05T15:00:16;3.60;;;2.50;;
65187;SDS011;51775;51.148;6.950;2022-12-05T15:02:45;3.80;;;2.50;;
65187;SDS011;51775;51.148;6.950;2022-12-05T15:07:46;3.38;;;2.40;;
65187;SDS011;51775;51.148;6.950;2022-12-05T15:10:31;4.10;;;2.38;;
65187;SDS011;51775;51.148;6.950;2022-12-05T15:13:03;3.58;;;2.33;;
65187;SDS011;51775;51.148;6.950;2022-12-05T15:15:45;3.60;;;2.35;;
65187;SDS011;51775;51.148;6.950;2022-12-05T15:20:58;3.92;;;2.55;;
65187;SDS011;51775;51.148;6.950;2022-12-05T15:23:36;4.50;;;2.40;;
65187;SDS011;51775;51.148;6.950;2022-12-05T15:26:02;3.22;;;2.28;;
65187;SDS011;51775;51.148;6.950;2022-12-05T15:28:35;3.42;;;2.40;;
65187;SDS011;51775;51.148;6.950;2022-12-05T15:31:01;3.42;;;2.35;;
65187;SDS011;51775;51.148;6.950;2022-12-05T15:33:26;3.38;;;2.25;;
65187;SDS011;51775;51.148;6.950;2022-12-05T15:35:52;5.38;;;2.40;;
65187;SDS011;51775;51.148;6.950;2022-12-05T15:38:28;3.30;;;2.38;;
65187;SDS011;51775;51.148;6.950;2022-12-05T15:40:57;3.40;;;2.35;;
65187;SDS011;51775;51.148;6.950;2022-12-05T15:48:54;3.17;;;2.20;;
65187;SDS011;51775;51.148;6.950;2022-12-05T15:51:36;3.97;;;2.10;;
65187;SDS011;51775;51.148;6.950;2022-12-05T15:54:16;4.88;;;2.50;;
65187;SDS011;51775;51.148;6.950;2022-12-05T15:56:51;3.47;;;2.50;;
65187;SDS011;51775;51.148;6.950;2022-12-05T15:59:44;3.50;;;2.33;;
65187;SDS011;51775;51.148;6.950;2022-12-05T16:02:22;3.20;;;2.17;;
65187;SDS011;51775;51.148;6.950;2022-12-05T16:04:51;3.92;;;2.45;;
65187;SDS011;51775;51.148;6.950;2022-12-05T16:07:19;3.42;;;2.10;;
65187;SDS011;51775;51.148;6.950;2022-12-05T16:09:46;2.80;;;2.10;;
65187;SDS011;51775;51.148;6.950;2022-12-05T16:14:49;3.28;;;2.20;;
65187;SDS011;51775;51.148;6.950;2022-12-05T16:17:17;3.10;;;2.30;;
65187;SDS011;51775;51.148;6.950;2022-12-05T16:19:43;3.33;;;2.17;;
65187;SDS011;51775;51.148;6.950;2022-12-05T16:24:47;4.63;;;2.15;;
65187;SDS011;51775;51.148;6.950;2022-12-05T16:27:24;5.72;;;2.00;;
65187;SDS011;51775;51.148;6.950;2022-12-05T16:32:37;2.63;;;1.90;;
65187;SDS011;51775;51.148;6.950;2022-12-05T16:35:21;2.75;;;1.90;;
65187;SDS011;51775;51.148;6.950;2022-12-05T16:45:51;3.05;;;1.90;;
65187;SDS011;51775;51.148;6.950;2022-12-05T16:48:20;3.70;;;2.00;;
65187;SDS011;51775;51.148;6.950;2022-12-05T16:51:15;2.95;;;1.83;;
65187;SDS011;51775;51.148;6.950;2022-12-05T16:53:43;2.90;;;1.90;;
65187;SDS011;51775;51.148;6.950;2022-12-05T16:56:13;2.80;;;1.90;;
65187;SDS011;51775;51.148;6.950;2022-12-05T16:58:40;2.72;;;1.90;;
65187;SDS011;51775;51.148;6.950;2022-12-05T17:01:06;2.97;;;1.77;;
65187;SDS011;51775;51.148;6.950;2022-12-05T17:03:40;2.95;;;1.92;;
65187;SDS011;51775;51.148;6.950;2022-12-05T17:06:05;3.05;;;1.80;;
65187;SDS011;51775;51.148;6.950;2022-12-05T17:08:30;2.83;;;2.00;;
65187;SDS011;51775;51.148;6.950;2022-12-05T17:10:56;2.78;;;1.80;;
65187;SDS011;51775;51.148;6.950;2022-12-05T17:13:23;2.40;;;1.90;;
65187;SDS011;51775;51.148;6.950;2022-12-05T17:15:48;2.67;;;1.90;;
65187;SDS011;51775;51.148;6.950;2022-12-05T17:18:15;2.35;;;1.63;;
65187;SDS011;51775;51.148;6.950;2022-12-05T17:20:43;3.00;;;1.75;;
65187;SDS011;51775;51.148;6.950;2022-12-05T17:23:12;2.50;;;1.80;;
65187;SDS011;51775;51.148;6.950;2022-12-05T17:25:59;2.28;;;1.63;;
65187;SDS011;51775;51.148;6.950;2022-12-05T17:28:24;2.25;;;1.63;;
65187;SDS011;51775;51.148;6.950;2022-12-05T17:30:50;2.75;;;1.83;;
65187;SDS011;51775;51.148;6.950;2022-12-05T17:33:17;2.47;;;1.70;;
65187;SDS011;51775;51.148;6.950;2022-12-05T17:35:43;2.60;;;1.60;;
65187;SDS011;51775;51.148;6.950;2022-12-05T17:38:09;2.50;;;1.70;;
65187;SDS011;51775;51.148;6.950;2022-12-05T17:40:35;2.40;;;1.70;;
65187;SDS011;51775;51.148;6.950;2022-12-05T17:43:01;2.45;;;1.65;;
65187;SDS011;51775;51.148;6.950;2022-12-05T17:45:27;2.75;;;1.70;;
65187;SDS011;51775;51.148;6.950;2022-12-05T17:47:52;2.47;;;1.60;;
65187;SDS011;51775;51.148;6.950;2022-12-05T17:50:19;3.25;;;1.65;;
65187;SDS011;51775;51.148;6.950;2022-12-05T17:52:46;2.53;;;1.70;;
65187;SDS011;51775;51.148;6.950;2022-12-05T17:55:17;3.33;;;1.88;;
65187;SDS011;51775;51.148;6.950;2022-12-05T17:57:44;2.17;;;1.60;;
65187;SDS011;51775;51.148;6.950;2022-12-05T18:00:10;3.30;;;1.70;;
65187;SDS011;51775;51.148;6.950;2022-12-05T18:02:37;2.50;;;1.80;;
65187;SDS011;51775;51.148;6.950;2022-12-05T18:05:02;2.97;;;1.80;;
65187;SDS011;51775;51.148;6.950;2022-12-05T18:07:28;2.58;;;1.70;;
65187;SDS011;51775;51.148;6.950;2022-12-05T18:09:53;2.50;;;1.80;;
65187;SDS011;51775;51.148;6.950;2022-12-05T18:12:19;2.80;;;1.67;;
65187;SDS011;51775;51.148;6.950;2022-12-05T18:14:44;2.63;;;1.60;;
65187;SDS011;51775;51.148;6.950;2022-12-05T18:17:09;2.55;;;1.88;;
65187;SDS011;51775;51.148;6.950;2022-12-05T18:19:35;2.42;;;1.60;;
65187;SDS011;51775;51.148;6.950;2022-12-05T18:22:00;2.60;;;1.80;;
65187;SDS011;51775;51.148;6.950;2022-12-05T18:24:26;2.65;;;1.80;;
65187;SDS011;51775;51.148;6.950;2022-12-05T18:26:51;2.47;;;1.75;;
65187;SDS011;51775;51.148;6.950;2022-12-05T18:29:16;2.65;;;1.77;;
65187;SDS011;51775;51.148;6.950;2022-12-05T18:31:42;2.63;;;1.80;;
65187;SDS011;51775;51.148;6.950;2022-12-05T18:34:07;2.65;;;1.90;;
65187;SDS011;51775;51.148;6.950;2022-12-05T18:36:33;2.60;;;1.80;;
65187;SDS011;51775;51.148;6.950;2022-12-05T18:38:58;2.67;;;1.85;;
65187;SDS011;51775;51.148;6.950;2022-12-05T18:41:24;3.88;;;2.10;;
65187;SDS011;51775;51.148;6.950;2022-12-05T18:43:49;2.97;;;1.80;;